ENTY weather

Tynset Airport
Tynset, Hedmark, Norway

Public forecast

Using degrees Celsius for public forecast. Weather courtesy of forecast.io.

Closest aviation weather report (METAR) to Tynset Airport

Closest report is Røros Airport, 26.9 nm (49.8 km) NE. Retrieved 2020/08/08 08:20 UTC (26 minutes ago):

ENRO 080820Z AUTO 10004KT 060V130 9999NDV FEW200/// 18/13 Q1020

Closest aviation forecast (TAF) to Tynset Airport

Closest forecast is Trondheim Airport Værnes, 72.4 nm (134.2 km) N. Retrieved 2020/08/08 06:57 UTC (2 hours ago):

TAF ENVA 080500Z 0806/0906 12005KT CAVOK BECMG 0809/0811 27010KT TEMPO 0812/0817 28020G30KT 4000 SHRA SCT012 BKN025CB PROB40 0812/0815 TS BECMG 0822/0824 VRB05KT